Galveston, Texas
Current Conditions -  °F | °C
As of 3:52 AM on Sunday 21 Dec 2014 (Local Time) from KGLS Reporting Station
Overcast Overcast  
Wind Chill: 53°   Ceiling: 2500
Heat Index: 53°   Visibility: 10mi
Dew Point: 51°   Wind: 13mph
Humidity: 93%   Direction: 40°NE
Pressure: 30.13"   Gusts: NA
Location:  29.3°N, 94.81°W
Report Text: KGLS 210952Z AUTO 04011KT 10SM OVC025 12/11 A3013 RMK AO1 SLP203 T01170106
Loading
Personal Weather Stations






























Interactive Weather Map New forecast layout! Learn more

10-Day Weather Forecast

Advertisements
Track Severe Weather on mobile